createdAt,value
2019-04-16T00:02:19.580Z,0.60
2019-04-16T00:04:49.943Z,0.70
2019-04-16T00:07:27.950Z,0.60
2019-04-16T00:09:58.418Z,1.50
2019-04-16T00:12:30.642Z,1.77
2019-04-16T00:15:00.453Z,0.60
2019-04-16T00:17:29.674Z,0.60
2019-04-16T00:19:59.948Z,0.60
2019-04-16T00:22:35.128Z,0.77
2019-04-16T00:25:05.188Z,0.68
2019-04-16T00:27:34.681Z,0.50
2019-04-16T00:30:05.305Z,1.75
2019-04-16T00:32:34.609Z,0.70
2019-04-16T00:35:08.979Z,1.58
2019-04-16T00:37:39.233Z,1.45
2019-04-16T00:40:08.896Z,0.75
2019-04-16T00:42:38.641Z,1.00
2019-04-16T00:45:08.151Z,0.50
2019-04-16T00:47:38.659Z,0.50
2019-04-16T00:50:07.970Z,0.60
2019-04-16T00:52:38.386Z,1.75
2019-04-16T00:55:07.981Z,0.70
2019-04-16T00:57:37.697Z,0.73
2019-04-16T01:00:07.909Z,0.93
2019-04-16T01:02:37.388Z,0.85
2019-04-16T01:05:07.305Z,0.50
2019-04-16T01:07:36.659Z,1.67
2019-04-16T01:10:06.106Z,0.50
2019-04-16T01:12:35.476Z,1.23
2019-04-16T01:15:05.235Z,0.50
2019-04-16T01:17:36.072Z,0.57
2019-04-16T01:20:04.994Z,1.67
2019-04-16T01:22:34.681Z,1.00
2019-04-16T01:25:05.538Z,1.05
2019-04-16T01:27:34.847Z,2.35
2019-04-16T01:30:06.492Z,6.47
2019-04-16T01:35:48.317Z,2.23
2019-04-16T01:38:30.114Z,2.17
2019-04-16T01:41:01.865Z,1.33
2019-04-16T01:43:32.116Z,3.05
2019-04-16T01:46:02.859Z,2.20
2019-04-16T01:48:32.323Z,1.87
2019-04-16T01:51:02.290Z,1.35
2019-04-16T01:53:31.706Z,1.48
2019-04-16T01:56:02.771Z,1.40
2019-04-16T01:58:33.830Z,2.17
2019-04-16T02:01:01.522Z,3.20
2019-04-16T02:03:30.736Z,1.40
2019-04-16T02:06:00.180Z,1.33
2019-04-16T02:08:31.133Z,2.58
2019-04-16T02:10:59.607Z,2.80
2019-04-16T02:13:29.246Z,3.28
2019-04-16T02:15:58.778Z,1.60
2019-04-16T02:18:29.676Z,1.62
2019-04-16T02:20:58.578Z,2.80
2019-04-16T02:23:29.091Z,2.70
2019-04-16T02:25:58.677Z,1.33
2019-04-16T02:28:28.970Z,2.10
2019-04-16T02:30:57.627Z,1.63
2019-04-16T02:33:27.014Z,1.80
2019-04-16T02:35:57.699Z,1.92
2019-04-16T02:38:27.457Z,3.80
2019-04-16T02:40:57.881Z,1.70
2019-04-16T02:43:27.441Z,4.33
2019-04-16T02:45:58.408Z,1.80
2019-04-16T02:48:26.773Z,1.60
2019-04-16T02:50:57.280Z,1.87
2019-04-16T02:53:32.217Z,1.93
2019-04-16T02:59:13.006Z,1.63
2019-04-16T03:01:41.755Z,1.97
2019-04-16T03:04:11.526Z,2.50
2019-04-16T03:06:40.927Z,3.43
2019-04-16T03:09:10.400Z,2.37
2019-04-16T03:11:40.006Z,2.77
2019-04-16T03:14:09.407Z,2.93
2019-04-16T03:16:42.039Z,2.50
2019-04-16T03:19:18.849Z,2.50
2019-04-16T03:21:46.029Z,3.30
2019-04-16T03:24:15.398Z,1.40
2019-04-16T03:26:47.640Z,2.60
2019-04-16T03:29:14.872Z,2.80
2019-04-16T03:31:44.120Z,4.47
2019-04-16T03:34:13.565Z,3.80
2019-04-16T03:36:42.951Z,4.43
2019-04-16T03:39:13.844Z,2.40
2019-04-16T03:41:42.276Z,3.57
2019-04-16T03:44:11.986Z,2.60
2019-04-16T03:46:45.989Z,1.80
2019-04-16T03:49:12.402Z,1.87
2019-04-16T03:51:42.479Z,2.17
2019-04-16T03:54:11.833Z,2.80
2019-04-16T03:56:41.409Z,2.37
2019-04-16T03:59:12.053Z,2.53
2019-04-16T04:01:45.480Z,3.30
2019-04-16T04:04:10.858Z,1.63
2019-04-16T04:06:40.631Z,2.13
2019-04-16T04:09:09.505Z,2.53
2019-04-16T04:11:41.190Z,2.13
2019-04-16T04:14:09.175Z,3.77
2019-04-16T04:16:38.738Z,1.43
2019-04-16T04:19:08.311Z,1.90
2019-04-16T04:21:37.833Z,1.93
2019-04-16T04:24:07.265Z,2.70
2019-04-16T04:26:41.074Z,3.57
2019-04-16T04:29:06.640Z,1.40
2019-04-16T04:31:36.067Z,3.67
2019-04-16T04:34:05.479Z,2.47
2019-04-16T04:36:35.001Z,2.80
2019-04-16T04:39:08.963Z,1.47
2019-04-16T04:41:35.022Z,2.47
2019-04-16T04:44:05.341Z,2.80
2019-04-16T04:46:34.357Z,2.97
2019-04-16T04:49:03.686Z,2.53
2019-04-16T04:51:33.089Z,2.47
2019-04-16T04:54:02.714Z,2.33
2019-04-16T04:56:32.119Z,1.70
2019-04-16T04:59:02.523Z,2.50
2019-04-16T05:01:31.283Z,2.67
2019-04-16T05:04:06.366Z,4.30
2019-04-16T05:06:38.664Z,1.87
2019-04-16T05:09:08.238Z,2.13
2019-04-16T05:11:37.845Z,3.20
2019-04-16T05:14:07.069Z,1.60
2019-04-16T05:16:36.582Z,2.43
2019-04-16T05:19:06.510Z,2.73
2019-04-16T05:21:36.011Z,2.90
2019-04-16T05:24:05.531Z,3.57
2019-04-16T05:26:36.560Z,3.10
2019-04-16T05:29:15.713Z,2.03
2019-04-16T05:31:41.546Z,2.37
2019-04-16T05:34:11.140Z,2.00
2019-04-16T05:36:43.725Z,3.10
2019-04-16T05:39:10.534Z,1.77
2019-04-16T05:41:39.784Z,4.17
2019-04-16T05:44:09.199Z,5.00
2019-04-16T05:46:41.371Z,3.47
2019-04-16T05:49:08.457Z,4.70
2019-04-16T05:51:37.814Z,2.23
2019-04-16T05:57:01.997Z,3.23
2019-04-16T05:59:33.760Z,6.37
2019-04-16T06:02:10.910Z,2.33
2019-04-16T06:04:39.947Z,3.70
2019-04-16T06:07:09.266Z,5.03
2019-04-16T06:09:38.643Z,4.23
2019-04-16T06:12:08.762Z,3.10
2019-04-16T06:14:41.435Z,3.83
2019-04-16T06:20:10.542Z,4.63
2019-04-16T06:22:41.852Z,2.87
2019-04-16T06:25:16.964Z,3.10
2019-04-16T06:28:03.722Z,3.13
2019-04-16T06:30:47.559Z,3.10
2019-04-16T06:33:20.118Z,2.70
2019-04-16T06:36:03.549Z,2.27
2019-04-16T06:38:46.526Z,1.93
2019-04-16T06:41:20.162Z,3.73
2019-04-16T06:43:58.164Z,1.50
2019-04-16T06:46:25.317Z,1.37
2019-04-16T06:49:09.831Z,4.33
2019-04-16T06:51:44.763Z,1.40
2019-04-16T06:54:25.112Z,1.83
2019-04-16T06:57:09.686Z,1.90
2019-04-16T06:59:42.058Z,2.23
2019-04-16T07:02:15.767Z,2.10
2019-04-16T07:07:46.816Z,3.27
2019-04-16T07:10:15.266Z,1.33
2019-04-16T07:12:44.902Z,1.63
2019-04-16T07:15:14.392Z,2.83
2019-04-16T07:17:43.945Z,1.80
2019-04-16T07:20:14.190Z,2.67
2019-04-16T07:22:43.335Z,1.63
2019-04-16T07:25:12.731Z,1.87
2019-04-16T07:27:42.185Z,1.60
2019-04-16T07:30:12.865Z,2.30
2019-04-16T07:32:49.627Z,2.50
2019-04-16T07:35:19.311Z,2.90
2019-04-16T07:37:54.360Z,2.03
2019-04-16T07:40:29.310Z,1.50
2019-04-16T07:42:59.390Z,1.23
2019-04-16T07:45:43.926Z,1.27
2019-04-16T07:48:22.542Z,0.90
2019-04-16T07:50:55.107Z,1.20
2019-04-16T07:53:30.971Z,0.90
2019-04-16T07:56:10.816Z,1.57
2019-04-16T07:58:40.200Z,3.50
2019-04-16T08:01:12.743Z,2.27
2019-04-16T08:03:39.242Z,1.40
2019-04-16T08:06:10.675Z,0.80
2019-04-16T08:08:38.362Z,1.07
2019-04-16T08:11:08.841Z,1.20
2019-04-16T08:13:38.481Z,0.80
2019-04-16T08:16:07.875Z,2.17
2019-04-16T08:18:37.281Z,2.30
2019-04-16T08:21:11.878Z,2.77
2019-04-16T08:23:42.012Z,2.67
2019-04-16T08:26:11.338Z,1.73
2019-04-16T08:28:37.188Z,0.97
2019-04-16T08:31:10.803Z,1.17
2019-04-16T08:33:37.717Z,2.20
2019-04-16T08:36:07.347Z,1.87
2019-04-16T08:38:36.742Z,3.97
2019-04-16T08:41:07.307Z,2.50
2019-04-16T08:43:36.777Z,1.97
2019-04-16T08:46:09.970Z,1.37
2019-04-16T08:48:36.503Z,1.23
2019-04-16T08:51:06.119Z,1.70
2019-04-16T08:53:35.866Z,0.80
2019-04-16T08:56:05.420Z,0.90
2019-04-16T08:58:35.708Z,2.67
2019-04-16T09:01:04.921Z,2.50
2019-04-16T09:03:34.307Z,1.20
2019-04-16T09:06:04.526Z,1.20
2019-04-16T09:08:38.777Z,1.77
2019-04-16T09:11:21.750Z,3.17
2019-04-16T09:13:56.254Z,2.37
2019-04-16T09:16:25.671Z,1.17
2019-04-16T09:18:58.774Z,0.80
2019-04-16T09:21:28.388Z,1.87
2019-04-16T09:24:08.841Z,2.07
2019-04-16T09:26:33.990Z,2.17
2019-04-16T09:29:10.291Z,1.27
2019-04-16T09:31:39.082Z,1.90
2019-04-16T09:34:09.557Z,3.00
2019-04-16T09:39:34.238Z,1.70
2019-04-16T09:42:03.745Z,1.20
2019-04-16T09:44:35.358Z,2.40
2019-04-16T09:47:05.191Z,0.80
2019-04-16T09:49:34.316Z,1.00
2019-04-16T09:52:03.973Z,0.97
2019-04-16T09:54:33.185Z,1.17
2019-04-16T09:57:02.520Z,1.57
2019-04-16T09:59:44.772Z,1.70
2019-04-16T10:02:13.879Z,1.60
2019-04-16T10:04:43.232Z,1.53
2019-04-16T10:07:12.647Z,1.10
2019-04-16T10:09:42.105Z,2.60
2019-04-16T10:12:11.581Z,1.63
2019-04-16T10:14:41.236Z,1.70
2019-04-16T10:17:10.536Z,1.30
2019-04-16T10:19:43.066Z,1.50
2019-04-16T10:22:09.526Z,1.20
2019-04-16T10:24:41.873Z,1.00
2019-04-16T10:27:11.397Z,0.90
2019-04-16T10:29:40.689Z,0.80
2019-04-16T10:32:10.445Z,1.03
2019-04-16T10:34:39.595Z,0.80
2019-04-16T10:37:09.260Z,0.80
2019-04-16T10:39:40.781Z,2.83
2019-04-16T10:45:20.170Z,1.12
2019-04-16T10:48:06.069Z,1.73
2019-04-16T10:50:51.298Z,2.20
2019-04-16T10:53:26.369Z,1.83
2019-04-16T10:56:01.181Z,3.03
2019-04-16T10:58:49.319Z,2.30
2019-04-16T11:01:24.411Z,1.83
2019-04-16T11:03:59.204Z,1.50
2019-04-16T11:06:32.434Z,1.17
2019-04-16T11:09:02.719Z,2.77
2019-04-16T11:11:32.459Z,2.73
2019-04-16T11:14:02.103Z,3.13
2019-04-16T11:16:31.423Z,1.00
2019-04-16T11:19:00.995Z,1.33
2019-04-16T11:21:30.349Z,1.77
2019-04-16T11:24:00.080Z,2.17
2019-04-16T11:26:30.784Z,2.67
2019-04-16T11:29:00.261Z,1.83
2019-04-16T11:31:29.736Z,2.60
2019-04-16T11:33:59.025Z,2.37
2019-04-16T11:36:31.070Z,1.37
2019-04-16T11:38:58.984Z,1.80
2019-04-16T11:41:28.633Z,1.63
2019-04-16T11:43:59.590Z,1.47
2019-04-16T11:46:28.045Z,1.57
2019-04-16T11:48:57.384Z,1.23
2019-04-16T11:51:26.970Z,2.67
2019-04-16T11:53:56.330Z,2.13
2019-04-16T11:56:25.652Z,1.90
2019-04-16T11:58:57.465Z,1.83
2019-04-16T12:01:24.963Z,1.00
2019-04-16T12:03:58.505Z,1.80
2019-04-16T12:06:31.325Z,2.80
2019-04-16T12:12:03.474Z,1.20
2019-04-16T12:14:42.017Z,1.20
2019-04-16T12:17:16.586Z,1.50
2019-04-16T12:20:04.346Z,1.17
2019-04-16T12:22:37.568Z,1.40
2019-04-16T12:25:23.354Z,2.60
2019-04-16T12:27:58.344Z,1.10
2019-04-16T12:30:30.946Z,2.73
2019-04-16T12:33:13.943Z,1.37
2019-04-16T12:35:46.481Z,1.83
2019-04-16T12:38:34.067Z,0.90
2019-04-16T12:41:22.644Z,0.90
2019-04-16T12:44:09.589Z,0.90
2019-04-16T12:46:56.247Z,1.73
2019-04-16T12:49:32.027Z,2.17
2019-04-16T12:52:04.120Z,1.83
2019-04-16T12:54:39.062Z,1.20
2019-04-16T12:57:19.216Z,3.63
2019-04-16T13:00:03.709Z,1.27
2019-04-16T13:02:46.049Z,3.40
2019-04-16T13:05:20.914Z,1.73
2019-04-16T13:07:58.946Z,1.10
2019-04-16T13:10:32.554Z,2.07
2019-04-16T13:13:03.939Z,2.33
2019-04-16T13:15:43.351Z,2.10
2019-04-16T13:18:14.272Z,2.00
2019-04-16T13:23:42.968Z,1.95
2019-04-16T13:26:18.048Z,1.57
2019-04-16T13:28:47.753Z,1.20
2019-04-16T13:31:17.176Z,2.00
2019-04-16T13:33:47.201Z,1.13
2019-04-16T13:36:16.511Z,2.53
2019-04-16T13:38:49.156Z,3.10
2019-04-16T13:41:18.777Z,2.27
2019-04-16T13:43:48.404Z,2.13
2019-04-16T13:46:17.838Z,3.80
2019-04-16T13:48:49.982Z,1.83
2019-04-16T13:51:21.048Z,5.27
2019-04-16T13:53:54.983Z,1.90
2019-04-16T13:56:25.765Z,2.50
2019-04-16T13:58:58.978Z,1.40
2019-04-16T14:01:45.064Z,2.30
2019-04-16T14:04:11.938Z,1.67
2019-04-16T14:06:41.344Z,5.07
2019-04-16T14:09:11.686Z,1.77
2019-04-16T14:11:41.103Z,2.10
2019-04-16T14:14:10.584Z,2.77
2019-04-16T14:16:40.888Z,1.40
2019-04-16T14:19:09.522Z,2.73
2019-04-16T14:21:39.145Z,1.73
2019-04-16T14:24:11.694Z,1.90
2019-04-16T14:26:39.045Z,3.27
2019-04-16T14:29:08.621Z,3.73
2019-04-16T14:31:38.156Z,2.77
2019-04-16T14:34:09.821Z,3.93
2019-04-16T14:36:38.911Z,4.17
2019-04-16T14:39:13.706Z,3.50
2019-04-16T14:41:48.873Z,2.77
2019-04-16T14:44:13.976Z,2.93
2019-04-16T14:46:43.561Z,3.30
2019-04-16T14:49:15.071Z,4.43
2019-04-16T14:51:42.498Z,2.67
2019-04-16T14:54:16.371Z,3.43
2019-04-16T14:56:48.678Z,4.47
2019-04-16T14:59:33.605Z,4.17
2019-04-16T15:01:54.491Z,3.43
2019-04-16T15:04:42.875Z,4.90
2019-04-16T15:07:13.281Z,3.13
2019-04-16T15:09:45.733Z,5.50
2019-04-16T15:12:19.854Z,3.70
2019-04-16T15:14:58.823Z,5.00
2019-04-16T15:17:32.947Z,2.43
2019-04-16T15:20:08.388Z,3.73
2019-04-16T15:22:44.930Z,3.33
2019-04-16T15:25:27.342Z,3.87
2019-04-16T15:31:00.709Z,6.87
2019-04-16T15:33:27.906Z,3.97
2019-04-16T15:36:07.215Z,5.97
2019-04-16T15:38:41.269Z,4.50
2019-04-16T15:41:26.345Z,3.87
2019-04-16T15:44:11.510Z,5.00
2019-04-16T15:46:47.196Z,3.40
2019-04-16T15:49:27.935Z,5.13
2019-04-16T15:52:03.017Z,6.07
2019-04-16T15:54:48.428Z,4.73
2019-04-16T15:57:32.050Z,4.77
2019-04-16T16:00:18.906Z,4.40
2019-04-16T16:02:49.424Z,3.17
2019-04-16T16:05:22.663Z,3.90
2019-04-16T16:07:56.035Z,1.40
2019-04-16T16:10:25.536Z,2.63
2019-04-16T16:12:55.186Z,1.50
2019-04-16T16:15:24.841Z,1.20
2019-04-16T16:17:54.671Z,2.37
2019-04-16T16:20:24.038Z,1.50
2019-04-16T16:22:54.550Z,1.63
2019-04-16T16:25:23.331Z,1.80
2019-04-16T16:27:52.966Z,1.90
2019-04-16T16:30:22.517Z,1.70
2019-04-16T16:32:52.067Z,2.90
2019-04-16T16:35:21.317Z,2.37
2019-04-16T16:37:50.671Z,2.73
2019-04-16T16:40:20.338Z,1.60
2019-04-16T16:42:49.540Z,2.00
2019-04-16T16:45:19.142Z,2.30
2019-04-16T16:47:48.543Z,3.07
2019-04-16T16:50:18.255Z,4.17
2019-04-16T16:52:53.291Z,4.30
2019-04-16T16:55:35.810Z,4.33
2019-04-16T17:01:21.754Z,4.90
2019-04-16T17:04:01.343Z,5.40
2019-04-16T17:06:30.687Z,5.73
2019-04-16T17:08:59.978Z,3.97
2019-04-16T17:11:29.210Z,5.33
2019-04-16T17:14:01.693Z,5.03
2019-04-16T17:16:28.396Z,4.53
2019-04-16T17:18:57.650Z,5.73
2019-04-16T17:21:27.409Z,4.47
2019-04-16T17:24:00.211Z,4.40
2019-04-16T17:26:30.914Z,5.07
2019-04-16T17:29:00.157Z,5.77
2019-04-16T17:31:29.994Z,4.63
2019-04-16T17:33:59.530Z,5.80
2019-04-16T17:36:29.151Z,8.23
2019-04-16T17:38:58.804Z,6.73
2019-04-16T17:41:31.728Z,4.75
2019-04-16T17:44:04.167Z,4.28
2019-04-16T17:46:33.670Z,5.65
2019-04-16T17:49:09.186Z,5.93
2019-04-16T17:51:43.434Z,5.22
2019-04-16T17:54:18.954Z,5.68
2019-04-16T17:56:55.122Z,4.65
2019-04-16T17:59:29.561Z,4.22
2019-04-16T18:02:04.508Z,4.47
2019-04-16T18:04:37.591Z,4.95
2019-04-16T18:07:12.646Z,5.50
2019-04-16T18:12:41.240Z,4.67
2019-04-16T18:15:14.124Z,5.25
2019-04-16T18:17:47.862Z,3.67
2019-04-16T18:20:34.191Z,5.68
2019-04-16T18:23:09.297Z,4.20
2019-04-16T18:25:38.622Z,3.60
2019-04-16T18:28:24.523Z,4.87
2019-04-16T18:31:13.696Z,4.90
2019-04-16T18:33:44.061Z,4.60
2019-04-16T18:36:14.224Z,4.70
2019-04-16T18:38:48.736Z,4.15
2019-04-16T18:41:36.144Z,4.62
2019-04-16T18:44:11.118Z,6.28
2019-04-16T18:46:42.596Z,4.68
2019-04-16T18:49:14.349Z,4.90
2019-04-16T18:51:41.892Z,11.38
2019-04-16T18:54:14.285Z,4.82
2019-04-16T18:56:42.445Z,8.95
2019-04-16T18:59:12.913Z,4.70
2019-04-16T19:01:43.173Z,4.40
2019-04-16T19:04:12.742Z,5.30
2019-04-16T19:06:42.213Z,5.22
2019-04-16T19:09:11.950Z,6.12
2019-04-16T19:11:41.239Z,6.15
2019-04-16T19:14:13.303Z,7.57
2019-04-16T19:16:40.634Z,4.62
2019-04-16T19:19:10.949Z,5.20
2019-04-16T19:21:42.522Z,4.78
2019-04-16T19:24:10.275Z,5.22
2019-04-16T19:26:39.530Z,5.28
2019-04-16T19:29:13.094Z,5.57
2019-04-16T19:31:38.830Z,4.97
2019-04-16T19:34:10.183Z,5.30
2019-04-16T19:36:38.199Z,5.93
2019-04-16T19:39:13.729Z,7.43
2019-04-16T19:41:41.012Z,5.80
2019-04-16T19:44:07.827Z,4.80
2019-04-16T19:46:36.983Z,7.53
2019-04-16T19:49:06.517Z,5.90
2019-04-16T19:51:38.047Z,5.62
2019-04-16T19:54:05.741Z,4.85
2019-04-16T19:56:35.979Z,7.03
2019-04-16T19:59:05.082Z,4.85
2019-04-16T20:01:34.674Z,6.12
2019-04-16T20:04:09.759Z,4.40
2019-04-16T20:06:34.178Z,5.80
2019-04-16T20:09:03.877Z,5.95
2019-04-16T20:11:33.569Z,6.68
2019-04-16T20:14:03.580Z,6.43
2019-04-16T20:16:32.901Z,4.10
2019-04-16T20:19:02.546Z,4.85
2019-04-16T20:21:32.030Z,4.78
2019-04-16T20:24:01.724Z,4.10
2019-04-16T20:26:38.107Z,5.45
2019-04-16T20:29:07.592Z,4.90
2019-04-16T20:31:37.172Z,4.82
2019-04-16T20:34:09.417Z,3.80
2019-04-16T20:36:37.391Z,3.80
2019-04-16T20:39:07.397Z,3.53
2019-04-16T20:41:36.891Z,4.05
2019-04-16T20:44:09.111Z,4.87
2019-04-16T20:46:36.154Z,4.53
2019-04-16T20:49:09.164Z,3.95
2019-04-16T20:51:35.698Z,5.05
2019-04-16T20:54:05.421Z,4.50
2019-04-16T20:56:34.657Z,4.07
2019-04-16T20:59:05.236Z,4.47
2019-04-16T21:01:37.519Z,3.80
2019-04-16T21:04:06.304Z,3.47
2019-04-16T21:06:33.874Z,4.60
2019-04-16T21:09:03.495Z,3.37
2019-04-16T21:11:32.357Z,4.75
2019-04-16T21:14:01.832Z,2.90
2019-04-16T21:16:33.843Z,3.55
2019-04-16T21:19:01.191Z,3.75
2019-04-16T21:21:30.781Z,2.35
2019-04-16T21:23:59.924Z,3.10
2019-04-16T21:26:29.311Z,2.75
2019-04-16T21:29:02.013Z,2.55
2019-04-16T21:31:49.435Z,1.77
2019-04-16T21:34:29.522Z,2.12
2019-04-16T21:36:57.291Z,2.00
2019-04-16T21:39:36.477Z,2.28
2019-04-16T21:42:05.659Z,2.10
2019-04-16T21:44:35.267Z,2.97
2019-04-16T21:47:04.515Z,3.42
2019-04-16T21:49:38.823Z,3.97
2019-04-16T21:52:07.996Z,2.40
2019-04-16T21:54:38.018Z,3.40
2019-04-16T21:57:09.853Z,2.67
2019-04-16T21:59:37.227Z,3.90
2019-04-16T22:02:06.881Z,4.10
2019-04-16T22:04:36.399Z,2.92
2019-04-16T22:07:07.950Z,3.03
2019-04-16T22:09:35.907Z,3.08
2019-04-16T22:12:05.519Z,2.87
2019-04-16T22:14:35.103Z,2.72
2019-04-16T22:17:04.744Z,4.47
2019-04-16T22:19:34.338Z,3.05
2019-04-16T22:22:04.190Z,3.10
2019-04-16T22:24:33.846Z,4.72
2019-04-16T22:27:06.330Z,4.28
2019-04-16T22:29:33.050Z,4.12
2019-04-16T22:32:02.458Z,4.15
2019-04-16T22:34:32.011Z,3.50
2019-04-16T22:37:02.327Z,4.12
2019-04-16T22:42:40.956Z,3.10
2019-04-16T22:45:15.919Z,2.60
2019-04-16T22:47:47.095Z,2.80
2019-04-16T22:50:17.453Z,3.17
2019-04-16T22:52:46.961Z,4.55
2019-04-16T22:55:16.306Z,2.92
2019-04-16T22:57:45.893Z,3.22
2019-04-16T23:00:30.803Z,3.15
2019-04-16T23:03:01.126Z,3.78
2019-04-16T23:05:30.745Z,2.90
2019-04-16T23:08:00.214Z,3.05
2019-04-16T23:10:29.777Z,4.72
2019-04-16T23:13:00.686Z,3.12
2019-04-16T23:15:28.920Z,2.80
2019-04-16T23:17:58.327Z,4.78
2019-04-16T23:20:29.779Z,3.08
2019-04-16T23:22:57.919Z,3.03
2019-04-16T23:25:28.116Z,3.08
2019-04-16T23:27:57.366Z,4.07
2019-04-16T23:30:27.181Z,3.22
2019-04-16T23:32:59.014Z,4.57
2019-04-16T23:35:26.068Z,3.92
2019-04-16T23:37:59.512Z,3.87
2019-04-16T23:40:26.031Z,3.28
2019-04-16T23:46:01.338Z,4.40
2019-04-16T23:48:33.746Z,5.20
2019-04-16T23:51:03.169Z,4.30
2019-04-16T23:53:33.795Z,4.72
2019-04-16T23:56:23.616Z,4.40
2019-04-16T23:59:06.568Z,3.72
